createdAt,value
2023-03-15T00:02:10.776Z,5.90
2023-03-15T00:04:42.804Z,5.60
2023-03-15T00:09:44.648Z,6.10
2023-03-15T00:12:15.180Z,5.60
2023-03-15T00:14:43.916Z,5.30
2023-03-15T00:17:15.410Z,6.10
2023-03-15T00:19:43.973Z,5.50
2023-03-15T00:22:17.081Z,6.60
2023-03-15T00:24:45.552Z,5.50
2023-03-15T00:27:16.993Z,6.50
2023-03-15T00:29:45.748Z,6.50
2023-03-15T00:32:17.228Z,5.40
2023-03-15T00:34:48.673Z,5.40
2023-03-15T00:37:19.241Z,4.50
2023-03-15T00:39:48.454Z,4.50
2023-03-15T00:42:16.983Z,4.50
2023-03-15T00:44:47.465Z,4.60
2023-03-15T00:47:17.140Z,5.30
2023-03-15T00:49:48.321Z,4.20
2023-03-15T00:52:22.003Z,4.70
2023-03-15T00:54:55.639Z,3.80
2023-03-15T00:57:34.183Z,4.10
2023-03-15T01:00:24.397Z,4.00
2023-03-15T01:02:56.577Z,5.20
2023-03-15T01:05:26.044Z,6.00
2023-03-15T01:07:56.752Z,4.60
2023-03-15T01:10:24.912Z,4.30
2023-03-15T01:12:55.812Z,4.90
2023-03-15T01:15:24.155Z,4.40
2023-03-15T01:17:56.463Z,5.50
2023-03-15T01:20:26.605Z,6.40
2023-03-15T01:22:54.691Z,5.40
2023-03-15T01:25:25.946Z,5.80
2023-03-15T01:27:54.464Z,5.70
2023-03-15T01:30:29.747Z,5.60
2023-03-15T01:32:58.235Z,5.10
2023-03-15T01:35:28.445Z,6.10
2023-03-15T01:37:58.792Z,7.90
2023-03-15T01:40:27.752Z,5.70
2023-03-15T01:43:06.022Z,6.40
2023-03-15T01:46:01.767Z,7.20
2023-03-15T01:48:45.212Z,6.20
2023-03-15T01:51:44.900Z,5.10
2023-03-15T01:54:15.612Z,5.70
2023-03-15T01:57:00.209Z,5.90
2023-03-15T01:59:48.983Z,5.10
2023-03-15T02:02:18.947Z,5.50
2023-03-15T02:05:09.388Z,5.20
2023-03-15T02:07:49.410Z,5.70
2023-03-15T02:10:30.329Z,5.00
2023-03-15T02:13:05.514Z,5.40
2023-03-15T02:15:36.761Z,5.30
2023-03-15T02:18:06.851Z,5.40
2023-03-15T02:21:34.031Z,4.50
2023-03-15T02:24:56.444Z,5.80
2023-03-15T02:27:35.064Z,4.80
2023-03-15T02:30:07.709Z,5.20
2023-03-15T02:32:36.247Z,5.50
2023-03-15T02:35:05.418Z,5.10
2023-03-15T02:37:34.125Z,5.20
2023-03-15T02:40:04.348Z,4.90
2023-03-15T02:42:32.739Z,4.80
2023-03-15T02:45:01.630Z,4.50
2023-03-15T02:47:33.554Z,3.80
2023-03-15T02:50:07.832Z,4.70
2023-03-15T02:52:38.743Z,4.70
2023-03-15T02:55:09.954Z,4.80
2023-03-15T02:57:38.249Z,4.90
2023-03-15T03:00:14.115Z,4.50
2023-03-15T03:02:53.994Z,4.90
2023-03-15T03:05:22.956Z,4.40
2023-03-15T03:07:51.040Z,4.70
2023-03-15T03:10:24.530Z,5.10
2023-03-15T03:12:56.093Z,4.30
2023-03-15T03:15:34.532Z,4.60
2023-03-15T03:18:03.857Z,4.80
2023-03-15T03:20:34.691Z,4.40
2023-03-15T03:23:05.980Z,4.40
2023-03-15T03:25:36.191Z,4.40
2023-03-15T03:28:04.388Z,4.30
2023-03-15T03:30:36.014Z,4.30
2023-03-15T03:33:06.695Z,3.60
2023-03-15T03:35:34.574Z,8.00
2023-03-15T03:38:02.329Z,5.00
2023-03-15T03:43:07.165Z,4.20
2023-03-15T03:45:35.876Z,3.70
2023-03-15T03:48:04.782Z,4.50
2023-03-15T03:50:34.256Z,4.40
2023-03-15T03:53:03.463Z,4.70
2023-03-15T03:55:45.963Z,4.60
2023-03-15T03:58:17.409Z,4.20
2023-03-15T04:00:57.592Z,6.10
2023-03-15T04:03:28.092Z,4.60
2023-03-15T04:06:07.725Z,4.60
2023-03-15T04:08:41.172Z,4.60
2023-03-15T04:11:14.278Z,3.70
2023-03-15T04:13:45.074Z,3.80
2023-03-15T04:16:16.385Z,5.60
2023-03-15T04:19:05.363Z,5.50
2023-03-15T04:21:37.614Z,4.70
2023-03-15T04:24:26.123Z,6.00
2023-03-15T04:27:14.055Z,4.70
2023-03-15T04:29:57.951Z,4.50
2023-03-15T04:32:44.741Z,5.20
2023-03-15T04:35:30.817Z,4.40
2023-03-15T04:38:26.347Z,5.50
2023-03-15T04:41:18.283Z,4.60
2023-03-15T04:44:05.708Z,4.80
2023-03-15T04:46:40.364Z,4.50
2023-03-15T04:49:16.668Z,4.50
2023-03-15T04:51:57.330Z,5.00
2023-03-15T04:55:01.356Z,4.50
2023-03-15T04:57:56.182Z,4.60
2023-03-15T05:00:43.001Z,4.40
2023-03-15T05:03:27.560Z,5.10
2023-03-15T05:06:28.894Z,10.80
2023-03-15T05:09:19.093Z,8.80
2023-03-15T05:12:13.327Z,6.90
2023-03-15T05:15:01.673Z,4.60
2023-03-15T05:17:45.958Z,4.20
2023-03-15T05:20:42.956Z,5.40
2023-03-15T05:23:33.159Z,5.30
2023-03-15T05:26:14.063Z,4.80
2023-03-15T05:29:05.324Z,4.70
2023-03-15T05:31:53.580Z,4.80
2023-03-15T05:34:44.887Z,5.50
2023-03-15T05:37:33.608Z,6.60
2023-03-15T05:40:45.994Z,5.10
2023-03-15T05:43:35.268Z,6.00
2023-03-15T05:46:31.512Z,6.90
2023-03-15T05:49:10.790Z,5.60
2023-03-15T05:51:57.871Z,5.40
2023-03-15T05:54:36.645Z,6.90
2023-03-15T05:57:24.408Z,6.70
2023-03-15T06:00:16.712Z,5.90
2023-03-15T06:02:48.103Z,5.70
2023-03-15T06:05:29.598Z,6.00
2023-03-15T06:07:58.862Z,6.00
2023-03-15T06:10:31.777Z,5.60
2023-03-15T06:13:01.629Z,6.10
2023-03-15T06:15:30.458Z,6.70
2023-03-15T06:18:00.552Z,6.70
2023-03-15T06:20:32.911Z,7.10
2023-03-15T06:23:07.338Z,6.30
2023-03-15T06:25:42.084Z,7.40
2023-03-15T06:28:11.147Z,5.70
2023-03-15T06:30:42.797Z,7.40
2023-03-15T06:33:11.975Z,8.60
2023-03-15T06:35:40.784Z,9.20
2023-03-15T06:38:12.630Z,8.60
2023-03-15T06:40:42.485Z,7.80
2023-03-15T06:43:18.289Z,6.50
2023-03-15T06:45:53.162Z,6.70
2023-03-15T06:48:22.389Z,8.00
2023-03-15T06:51:05.679Z,7.00
2023-03-15T06:53:40.605Z,8.50
2023-03-15T06:58:40.548Z,9.00
2023-03-15T07:01:13.829Z,9.60
2023-03-15T07:03:46.143Z,7.20
2023-03-15T07:06:15.246Z,4.70
2023-03-15T07:08:48.611Z,10.90
2023-03-15T07:11:17.019Z,11.80
2023-03-15T07:14:12.255Z,10.50
2023-03-15T07:16:40.768Z,9.90
2023-03-15T07:19:09.323Z,9.80
2023-03-15T07:21:45.264Z,8.30
2023-03-15T07:24:15.780Z,10.00
2023-03-15T07:26:44.458Z,8.70
2023-03-15T07:29:12.713Z,7.80
2023-03-15T07:32:01.897Z,6.10
2023-03-15T07:34:37.132Z,6.10
2023-03-15T07:37:05.938Z,5.30
2023-03-15T07:39:40.494Z,7.10
2023-03-15T07:42:11.581Z,5.30
2023-03-15T07:44:42.664Z,4.30
2023-03-15T07:47:14.456Z,8.30
2023-03-15T07:49:50.444Z,6.20
2023-03-15T07:52:20.961Z,6.60
2023-03-15T07:54:49.621Z,5.80
2023-03-15T07:57:18.514Z,5.90
2023-03-15T07:59:52.260Z,4.90
2023-03-15T08:02:30.688Z,6.60
2023-03-15T08:04:59.611Z,5.00
2023-03-15T08:07:31.584Z,6.00
2023-03-15T08:10:10.918Z,4.80
2023-03-15T08:12:51.557Z,5.60
2023-03-15T08:15:32.636Z,4.90
2023-03-15T08:18:08.756Z,6.00
2023-03-15T08:20:49.024Z,7.20
2023-03-15T08:23:21.511Z,6.70
2023-03-15T08:25:51.330Z,6.40
2023-03-15T08:28:20.287Z,5.40
2023-03-15T08:30:48.740Z,5.10
2023-03-15T08:33:24.530Z,4.00
2023-03-15T08:36:00.843Z,13.20
2023-03-15T08:38:48.494Z,5.10
2023-03-15T08:41:20.023Z,5.00
2023-03-15T08:43:52.808Z,4.70
2023-03-15T08:46:27.531Z,6.20
2023-03-15T08:48:55.897Z,5.00
2023-03-15T08:51:26.014Z,4.90
2023-03-15T08:53:54.350Z,5.30
2023-03-15T08:56:23.077Z,5.80
2023-03-15T08:58:51.278Z,6.70
2023-03-15T09:01:21.003Z,6.20
2023-03-15T09:03:50.409Z,5.80
2023-03-15T09:06:18.609Z,6.80
2023-03-15T09:08:53.479Z,5.90
2023-03-15T09:11:25.118Z,5.20
2023-03-15T09:13:56.683Z,3.90
2023-03-15T09:16:24.817Z,6.10
2023-03-15T09:18:55.307Z,4.90
2023-03-15T09:21:27.400Z,5.40
2023-03-15T09:24:01.080Z,5.80
2023-03-15T09:26:40.004Z,3.70
2023-03-15T09:29:16.588Z,4.20
2023-03-15T09:31:49.265Z,4.90
2023-03-15T09:34:21.966Z,4.30
2023-03-15T09:36:54.770Z,4.10
2023-03-15T09:39:25.220Z,4.20
2023-03-15T09:41:58.359Z,4.80
2023-03-15T09:44:51.991Z,4.50
2023-03-15T09:47:36.805Z,4.60
2023-03-15T09:50:23.851Z,4.80
2023-03-15T09:52:59.881Z,7.10
2023-03-15T09:55:35.681Z,4.50
2023-03-15T09:58:16.046Z,5.40
2023-03-15T10:00:53.495Z,5.90
2023-03-15T10:03:56.488Z,7.10
2023-03-15T10:06:36.405Z,4.20
2023-03-15T10:09:46.102Z,4.30
2023-03-15T10:13:21.375Z,6.40
2023-03-15T10:16:33.673Z,8.40
2023-03-15T10:19:50.035Z,7.20
2023-03-15T10:22:48.763Z,8.00
2023-03-15T10:25:34.986Z,5.50
2023-03-15T10:29:00.450Z,4.90
2023-03-15T10:32:17.638Z,4.20
2023-03-15T10:35:21.628Z,5.80
2023-03-15T10:38:05.286Z,5.90
2023-03-15T10:40:55.792Z,9.70
2023-03-15T10:43:35.261Z,10.30
2023-03-15T10:46:27.107Z,7.50
2023-03-15T10:49:25.840Z,6.20
2023-03-15T10:52:08.833Z,4.00
2023-03-15T10:55:37.839Z,4.30
2023-03-15T10:59:11.525Z,3.40
2023-03-15T11:01:56.518Z,3.80
2023-03-15T11:04:33.787Z,3.20
2023-03-15T11:10:19.033Z,4.60
2023-03-15T11:13:45.410Z,4.60
2023-03-15T11:16:40.197Z,3.50
2023-03-15T11:20:15.207Z,4.90
2023-03-15T11:24:30.173Z,3.90
2023-03-15T11:28:10.927Z,5.20
2023-03-15T11:31:32.150Z,6.00
2023-03-15T11:34:56.735Z,5.10
2023-03-15T11:38:15.315Z,4.40
2023-03-15T11:41:59.319Z,3.60
2023-03-15T11:45:30.450Z,3.60
2023-03-15T11:49:02.901Z,3.50
2023-03-15T11:52:14.067Z,3.50
2023-03-15T11:56:20.572Z,4.70
2023-03-15T12:03:36.646Z,4.20
2023-03-15T12:24:19.131Z,3.70
2023-03-15T12:27:33.671Z,2.90
2023-03-15T12:35:14.548Z,3.90
2023-03-15T12:38:23.675Z,4.50
2023-03-15T12:41:53.967Z,3.70
2023-03-15T12:44:40.126Z,2.90
2023-03-15T12:48:09.604Z,4.30
2023-03-15T12:50:48.032Z,4.10
2023-03-15T12:53:31.887Z,4.50
2023-03-15T12:56:42.836Z,4.20
2023-03-15T12:59:35.341Z,3.40
2023-03-15T13:02:44.538Z,3.50
2023-03-15T13:06:01.330Z,3.30
2023-03-15T13:09:18.188Z,3.50
2023-03-15T13:12:15.850Z,3.40
2023-03-15T13:14:58.169Z,3.10
2023-03-15T13:17:59.782Z,3.20
2023-03-15T13:21:12.057Z,4.10
2023-03-15T13:23:48.958Z,3.10
2023-03-15T13:27:09.274Z,3.70
2023-03-15T13:29:42.737Z,2.90
2023-03-15T13:32:18.191Z,3.10
2023-03-15T13:34:49.462Z,3.00
2023-03-15T13:37:48.619Z,3.10
2023-03-15T13:40:58.986Z,2.50
2023-03-15T13:43:46.997Z,3.20
2023-03-15T13:46:35.819Z,4.90
2023-03-15T13:52:49.028Z,3.10
2023-03-15T13:55:53.779Z,3.90
2023-03-15T13:58:31.228Z,4.00
2023-03-15T14:01:26.865Z,4.30
2023-03-15T14:04:29.962Z,2.80
2023-03-15T14:07:34.894Z,3.00
2023-03-15T14:10:17.054Z,5.00
2023-03-15T14:12:49.331Z,4.80
2023-03-15T14:15:50.539Z,3.70
2023-03-15T14:22:44.833Z,4.30
2023-03-15T14:54:36.584Z,5.00
2023-03-15T15:00:42.177Z,5.40
2023-03-15T15:04:05.636Z,10.00
2023-03-15T15:06:58.894Z,11.00
2023-03-15T15:09:30.860Z,15.20
2023-03-15T15:12:05.196Z,6.80
2023-03-15T15:14:50.290Z,6.30
2023-03-15T15:21:13.758Z,7.30
2023-03-15T15:24:42.796Z,6.10
2023-03-15T15:28:01.446Z,4.70
2023-03-15T15:31:13.353Z,4.60
2023-03-15T15:34:35.769Z,5.00
2023-03-15T15:37:58.958Z,5.50
2023-03-15T15:41:13.304Z,5.90
2023-03-15T15:44:20.188Z,6.00
2023-03-15T15:46:57.317Z,4.60
2023-03-15T15:49:33.658Z,5.30
2023-03-15T15:52:09.915Z,4.70
2023-03-15T15:54:46.316Z,5.30
2023-03-15T15:57:31.784Z,4.70
2023-03-15T16:00:30.855Z,3.90
2023-03-15T16:03:32.878Z,4.40
2023-03-15T16:06:10.033Z,3.80
2023-03-15T16:08:42.621Z,4.50
2023-03-15T16:11:18.225Z,3.80
2023-03-15T16:14:02.440Z,5.40
2023-03-15T16:16:54.538Z,4.80
2023-03-15T16:19:41.433Z,5.20
2023-03-15T16:22:35.228Z,4.90
2023-03-15T16:25:26.226Z,5.20
2023-03-15T16:28:11.133Z,5.90
2023-03-15T16:30:46.886Z,5.80
2023-03-15T16:33:39.430Z,7.00
2023-03-15T16:36:39.657Z,6.00
2023-03-15T16:39:21.911Z,7.80
2023-03-15T16:42:13.542Z,8.10
2023-03-15T16:44:56.672Z,7.70
2023-03-15T16:47:53.627Z,6.40
2023-03-15T16:50:51.512Z,8.90
2023-03-15T16:53:57.495Z,9.90
2023-03-15T16:56:46.588Z,10.50
2023-03-15T16:59:28.717Z,10.00
2023-03-15T17:02:03.857Z,10.00
2023-03-15T17:04:54.219Z,10.40
2023-03-15T17:08:15.869Z,10.60
2023-03-15T17:11:03.993Z,12.00
2023-03-15T17:18:36.581Z,13.90
2023-03-15T17:22:24.974Z,13.40
2023-03-15T17:25:26.059Z,17.00
2023-03-15T17:28:32.503Z,24.60
2023-03-15T17:31:46.160Z,28.30
2023-03-15T17:35:27.215Z,31.80
2023-03-15T17:38:03.331Z,31.90
2023-03-15T17:40:39.712Z,29.90
2023-03-15T17:43:15.185Z,29.80
2023-03-15T17:46:02.918Z,26.30
2023-03-15T17:48:47.071Z,25.70
2023-03-15T17:51:35.412Z,23.30
2023-03-15T17:54:27.169Z,24.80
2023-03-15T17:57:19.172Z,30.30
2023-03-15T18:00:04.607Z,38.60
2023-03-15T18:02:56.846Z,31.90
2023-03-15T18:05:31.536Z,23.40
2023-03-15T18:08:11.719Z,27.60
2023-03-15T18:11:26.691Z,30.70
2023-03-15T18:14:13.463Z,28.40
2023-03-15T18:17:08.892Z,29.00
2023-03-15T18:19:50.543Z,28.90
2023-03-15T18:26:14.848Z,22.00
2023-03-15T18:28:56.868Z,28.00
2023-03-15T18:31:53.511Z,37.10
2023-03-15T18:34:31.457Z,45.70
2023-03-15T18:37:11.478Z,48.50
2023-03-15T18:39:51.276Z,47.90
2023-03-15T18:42:36.693Z,51.80
2023-03-15T18:45:30.497Z,54.10
2023-03-15T18:48:07.789Z,59.30
2023-03-15T18:50:43.585Z,61.40
2023-03-15T18:53:18.766Z,63.00
2023-03-15T18:56:21.357Z,58.20
2023-03-15T18:59:13.817Z,53.60
2023-03-15T19:01:54.529Z,47.30
2023-03-15T19:04:23.826Z,42.90
2023-03-15T19:06:56.070Z,46.80
2023-03-15T19:09:39.775Z,50.30
2023-03-15T19:12:24.714Z,53.00
2023-03-15T19:15:00.936Z,51.90
2023-03-15T19:18:11.533Z,60.60
2023-03-15T19:21:00.166Z,63.60
2023-03-15T19:23:46.780Z,60.50
2023-03-15T19:26:22.229Z,53.30
2023-03-15T19:29:20.129Z,56.20
2023-03-15T19:32:26.730Z,57.00
2023-03-15T19:35:22.877Z,62.00
2023-03-15T19:38:10.585Z,55.80
2023-03-15T19:44:52.254Z,63.50
2023-03-15T19:47:48.085Z,63.90
2023-03-15T19:54:11.920Z,67.00
2023-03-15T19:56:42.347Z,68.40
2023-03-15T19:59:18.620Z,61.80
2023-03-15T20:02:00.850Z,54.10
2023-03-15T20:04:29.886Z,60.30
2023-03-15T20:06:59.363Z,55.40
2023-03-15T20:09:38.738Z,50.30
2023-03-15T20:12:19.235Z,52.80
2023-03-15T20:14:53.948Z,50.70
2023-03-15T20:17:25.639Z,52.90
2023-03-15T20:20:04.245Z,60.80
2023-03-15T20:22:40.528Z,61.70
2023-03-15T20:25:18.699Z,55.40
2023-03-15T20:27:55.859Z,58.20
2023-03-15T20:30:37.224Z,63.80
2023-03-15T20:33:14.995Z,67.00
2023-03-15T20:35:45.142Z,64.40
2023-03-15T20:38:14.779Z,68.70
2023-03-15T20:40:46.047Z,69.80
2023-03-15T20:43:22.577Z,86.70
2023-03-15T20:46:14.312Z,80.40
2023-03-15T20:48:44.590Z,83.60
2023-03-15T20:51:21.768Z,84.90
2023-03-15T20:53:54.310Z,86.00
2023-03-15T20:56:26.312Z,77.20
2023-03-15T20:58:58.427Z,73.10
2023-03-15T21:01:49.909Z,71.50
2023-03-15T21:06:23.968Z,68.80
2023-03-15T21:09:02.800Z,68.60
2023-03-15T21:12:37.660Z,75.40
2023-03-15T21:18:42.250Z,76.10
2023-03-15T21:21:14.478Z,76.20
2023-03-15T21:23:42.891Z,80.10
2023-03-15T21:26:16.693Z,80.80
2023-03-15T21:28:48.535Z,87.70
2023-03-15T21:31:36.443Z,100.20
2023-03-15T21:34:14.444Z,101.80
2023-03-15T21:36:45.793Z,102.90
2023-03-15T21:39:19.902Z,115.10
2023-03-15T21:41:54.693Z,111.40
2023-03-15T21:44:25.699Z,106.60
2023-03-15T21:46:57.365Z,98.80
2023-03-15T21:49:48.158Z,105.30
2023-03-15T21:52:21.524Z,101.50
2023-03-15T21:54:59.190Z,106.80
2023-03-15T21:57:36.581Z,101.70
2023-03-15T22:00:11.641Z,94.40
2023-03-15T22:02:46.599Z,87.30
2023-03-15T22:05:15.392Z,86.50
2023-03-15T22:07:52.649Z,90.20
2023-03-15T22:10:26.603Z,90.10
2023-03-15T22:13:00.629Z,94.00
2023-03-15T22:15:28.914Z,91.60
2023-03-15T22:17:57.241Z,93.90
2023-03-15T22:20:30.364Z,91.40
2023-03-15T22:23:05.106Z,87.00
2023-03-15T22:26:09.485Z,83.80
2023-03-15T22:28:55.598Z,82.80
2023-03-15T22:31:34.117Z,78.70
2023-03-15T22:34:12.203Z,74.10
2023-03-15T22:36:43.792Z,76.20
2023-03-15T22:39:15.825Z,71.90
2023-03-15T22:41:54.336Z,73.60
2023-03-15T22:44:30.462Z,70.60
2023-03-15T22:47:10.601Z,66.10
2023-03-15T22:49:48.385Z,68.10
2023-03-15T22:52:29.522Z,69.90
2023-03-15T22:55:20.883Z,65.70
2023-03-15T22:57:53.662Z,60.30
2023-03-15T23:00:32.274Z,64.60
2023-03-15T23:03:13.165Z,62.80
2023-03-15T23:05:58.852Z,68.80
2023-03-15T23:08:37.678Z,66.70
2023-03-15T23:11:24.832Z,67.20
2023-03-15T23:13:58.454Z,65.10
2023-03-15T23:16:28.830Z,67.00
2023-03-15T23:19:07.735Z,66.40
2023-03-15T23:21:42.610Z,65.40
2023-03-15T23:24:22.378Z,68.90
2023-03-15T23:27:06.947Z,67.70
2023-03-15T23:29:54.223Z,69.40
2023-03-15T23:32:44.566Z,66.10
2023-03-15T23:35:23.973Z,63.20
2023-03-15T23:38:01.609Z,61.30
2023-03-15T23:40:36.081Z,58.30
2023-03-15T23:43:14.608Z,59.70
2023-03-15T23:45:58.797Z,60.10
2023-03-15T23:48:36.627Z,61.40
2023-03-15T23:51:05.480Z,61.00
2023-03-15T23:53:42.325Z,61.00
2023-03-15T23:56:22.488Z,57.30
2023-03-15T23:59:03.118Z,58.80
